createdAt,value
2022-09-11T00:01:17.378Z,16.42
2022-09-11T00:03:46.215Z,16.77
2022-09-11T00:06:27.540Z,15.43
2022-09-11T00:09:02.151Z,15.82
2022-09-11T00:11:34.611Z,15.23
2022-09-11T00:14:02.211Z,15.50
2022-09-11T00:16:33.934Z,15.70
2022-09-11T00:19:06.223Z,15.68
2022-09-11T00:21:33.915Z,16.10
2022-09-11T00:24:01.244Z,15.52
2022-09-11T00:26:28.682Z,15.75
2022-09-11T00:28:56.139Z,13.98
2022-09-11T00:31:28.646Z,14.13
2022-09-11T00:33:56.146Z,15.27
2022-09-11T00:36:29.293Z,13.43
2022-09-11T00:38:56.505Z,14.00
2022-09-11T00:41:32.090Z,15.15
2022-09-11T00:44:28.350Z,14.93
2022-09-11T00:46:59.250Z,15.52
2022-09-11T00:49:46.482Z,16.30
2022-09-11T00:52:27.263Z,13.70
2022-09-11T00:55:00.438Z,13.80
2022-09-11T00:57:30.539Z,14.88
2022-09-11T01:00:00.393Z,14.68
2022-09-11T01:02:29.507Z,15.63
2022-09-11T01:04:57.835Z,15.15
2022-09-11T01:07:26.915Z,15.63
2022-09-11T01:09:55.090Z,14.75
2022-09-11T01:12:36.519Z,15.60
2022-09-11T01:15:06.758Z,14.90
2022-09-11T01:17:48.146Z,13.90
2022-09-11T01:20:43.032Z,12.88
2022-09-11T01:23:26.070Z,12.38
2022-09-11T01:26:11.998Z,11.88
2022-09-11T01:28:49.799Z,11.32
2022-09-11T01:31:22.682Z,12.15
2022-09-11T01:34:00.765Z,10.57
2022-09-11T01:36:35.359Z,12.35
2022-09-11T01:39:04.296Z,12.27
2022-09-11T01:41:53.255Z,11.80
2022-09-11T01:44:23.104Z,12.98
2022-09-11T01:46:52.405Z,11.05
2022-09-11T01:49:32.032Z,10.60
2022-09-11T01:52:09.221Z,11.38
2022-09-11T01:54:42.862Z,11.50
2022-09-11T01:57:36.654Z,11.35
2022-09-11T02:00:09.016Z,10.48
2022-09-11T02:02:39.907Z,9.82
2022-09-11T02:05:13.438Z,9.98
2022-09-11T02:07:55.847Z,11.05
2022-09-11T02:10:39.822Z,10.38
2022-09-11T02:13:35.840Z,10.00
2022-09-11T02:16:14.653Z,9.45
2022-09-11T02:18:51.487Z,11.02
2022-09-11T02:21:18.437Z,11.02
2022-09-11T02:23:45.572Z,10.68
2022-09-11T02:26:14.019Z,11.07
2022-09-11T02:28:41.096Z,10.93
2022-09-11T02:31:08.652Z,12.23
2022-09-11T02:33:38.005Z,11.90
2022-09-11T02:36:32.006Z,13.10
2022-09-11T02:39:20.082Z,12.55
2022-09-11T02:42:12.464Z,13.32
2022-09-11T02:44:58.639Z,12.05
2022-09-11T02:47:44.280Z,12.75
2022-09-11T02:50:26.735Z,11.63
2022-09-11T02:53:18.654Z,13.23
2022-09-11T02:56:12.066Z,11.77
2022-09-11T02:58:55.546Z,11.60
2022-09-11T03:01:23.462Z,13.15
2022-09-11T03:03:50.390Z,12.50
2022-09-11T03:06:23.216Z,12.85
2022-09-11T03:11:18.865Z,12.32
2022-09-11T03:13:45.943Z,13.23
2022-09-11T03:16:13.532Z,12.82
2022-09-11T03:18:40.492Z,12.88
2022-09-11T03:21:07.429Z,13.32
2022-09-11T03:23:34.534Z,12.93
2022-09-11T03:26:01.416Z,13.10
2022-09-11T03:28:31.053Z,13.85
2022-09-11T03:30:59.251Z,13.95
2022-09-11T03:33:26.180Z,12.98
2022-09-11T03:35:53.104Z,13.45
2022-09-11T03:38:20.586Z,13.82
2022-09-11T03:40:47.450Z,14.13
2022-09-11T03:43:16.610Z,15.45
2022-09-11T03:45:44.926Z,15.80
2022-09-11T03:48:11.939Z,14.73
2022-09-11T03:50:38.817Z,15.45
2022-09-11T03:53:05.876Z,14.18
2022-09-11T03:55:33.025Z,13.23
2022-09-11T03:58:00.115Z,12.80
2022-09-11T04:00:27.350Z,13.82
2022-09-11T04:02:55.652Z,13.63
2022-09-11T04:05:25.853Z,13.35
2022-09-11T04:07:53.957Z,13.63
2022-09-11T04:10:21.337Z,15.82
2022-09-11T04:12:48.347Z,13.30
2022-09-11T04:15:15.558Z,13.85
2022-09-11T04:17:42.412Z,12.50
2022-09-11T04:20:10.100Z,12.93
2022-09-11T04:22:37.400Z,13.88
2022-09-11T04:25:04.611Z,12.88
2022-09-11T04:27:31.509Z,13.82
2022-09-11T04:29:58.584Z,11.75
2022-09-11T04:32:25.478Z,11.60
2022-09-11T04:34:53.042Z,12.68
2022-09-11T04:37:20.308Z,12.23
2022-09-11T04:39:47.779Z,12.13
2022-09-11T04:42:14.923Z,11.93
2022-09-11T04:44:42.732Z,12.88
2022-09-11T04:47:09.726Z,11.82
2022-09-11T04:49:36.614Z,11.48
2022-09-11T04:52:07.340Z,11.32
2022-09-11T04:54:34.318Z,11.38
2022-09-11T04:57:04.332Z,10.55
2022-09-11T04:59:31.469Z,12.30
2022-09-11T05:01:58.480Z,12.32
2022-09-11T05:04:26.508Z,11.20
2022-09-11T05:06:53.816Z,11.55
2022-09-11T05:09:20.872Z,11.32
2022-09-11T05:11:48.179Z,10.90
2022-09-11T05:14:15.515Z,10.57
2022-09-11T05:16:43.783Z,10.98
2022-09-11T05:19:10.751Z,11.30
2022-09-11T05:21:37.973Z,11.23
2022-09-11T05:24:05.275Z,10.80
2022-09-11T05:26:35.392Z,12.73
2022-09-11T05:29:07.206Z,11.68
2022-09-11T05:31:34.278Z,11.50
2022-09-11T05:34:03.277Z,11.77
2022-09-11T05:36:34.259Z,12.05
2022-09-11T05:39:01.793Z,13.27
2022-09-11T05:41:28.781Z,10.48
2022-09-11T05:44:00.188Z,10.52
2022-09-11T05:46:27.429Z,9.93
2022-09-11T05:48:54.719Z,10.57
2022-09-11T05:51:22.241Z,9.63
2022-09-11T05:53:53.601Z,9.95
2022-09-11T05:56:23.188Z,10.90
2022-09-11T05:58:51.807Z,10.50
2022-09-11T06:01:22.163Z,10.27
2022-09-11T06:03:49.658Z,9.52
2022-09-11T06:06:19.500Z,8.30
2022-09-11T06:08:47.438Z,8.93
2022-09-11T06:11:16.599Z,8.27
2022-09-11T06:13:48.765Z,7.68
2022-09-11T06:16:18.875Z,9.43
2022-09-11T06:18:49.293Z,8.38
2022-09-11T06:21:21.278Z,9.43
2022-09-11T06:23:49.847Z,7.68
2022-09-11T06:26:23.026Z,7.93
2022-09-11T06:28:51.318Z,8.80
2022-09-11T06:31:20.345Z,7.47
2022-09-11T06:33:47.920Z,7.50
2022-09-11T06:36:17.894Z,7.80
2022-09-11T06:38:45.362Z,7.38
2022-09-11T06:41:15.506Z,7.03
2022-09-11T06:43:43.717Z,7.15
2022-09-11T06:46:13.769Z,5.97
2022-09-11T06:48:42.115Z,7.05
2022-09-11T06:51:12.450Z,6.72
2022-09-11T06:53:41.119Z,7.20
2022-09-11T06:56:12.852Z,7.05
2022-09-11T06:58:41.180Z,6.78
2022-09-11T07:01:16.236Z,6.70
2022-09-11T07:03:46.331Z,6.15
2022-09-11T07:06:14.318Z,6.82
2022-09-11T07:08:41.555Z,5.93
2022-09-11T07:11:10.010Z,6.72
2022-09-11T07:13:38.618Z,7.07
2022-09-11T07:16:09.869Z,6.45
2022-09-11T07:18:39.497Z,6.47
2022-09-11T07:21:17.717Z,6.20
2022-09-11T07:23:48.574Z,7.03
2022-09-11T07:26:16.421Z,6.72
2022-09-11T07:28:43.329Z,6.28
2022-09-11T07:31:16.373Z,5.97
2022-09-11T07:33:48.833Z,6.10
2022-09-11T07:36:18.760Z,6.18
2022-09-11T07:38:47.290Z,6.93
2022-09-11T07:41:16.796Z,6.65
2022-09-11T07:43:46.886Z,6.13
2022-09-11T07:46:14.854Z,6.22
2022-09-11T07:48:43.068Z,5.82
2022-09-11T07:51:12.618Z,6.45
2022-09-11T07:53:47.903Z,6.57
2022-09-11T07:56:18.867Z,6.97
2022-09-11T07:58:46.463Z,5.97
2022-09-11T08:01:19.784Z,7.13
2022-09-11T08:03:49.452Z,5.85
2022-09-11T08:06:22.158Z,5.47
2022-09-11T08:08:58.369Z,5.70
2022-09-11T08:11:26.492Z,5.72
2022-09-11T08:13:55.154Z,6.45
2022-09-11T08:16:26.911Z,5.03
2022-09-11T08:18:54.862Z,5.70
2022-09-11T08:21:23.457Z,5.78
2022-09-11T08:23:50.992Z,6.57
2022-09-11T08:26:24.113Z,5.75
2022-09-11T08:28:54.017Z,5.72
2022-09-11T08:31:26.371Z,6.35
2022-09-11T08:33:54.601Z,6.70
2022-09-11T08:36:22.662Z,6.35
2022-09-11T08:38:51.572Z,5.68
2022-09-11T08:41:24.419Z,6.03
2022-09-11T08:44:10.635Z,4.93
2022-09-11T08:46:41.625Z,4.28
2022-09-11T08:49:30.960Z,4.72
2022-09-11T08:52:01.655Z,4.50
2022-09-11T08:54:35.007Z,4.28
2022-09-11T08:57:19.463Z,5.15
2022-09-11T08:59:46.540Z,4.53
2022-09-11T09:02:39.108Z,4.78
2022-09-11T09:05:44.267Z,4.38
2022-09-11T09:08:29.757Z,3.65
2022-09-11T09:11:00.300Z,3.53
2022-09-11T09:13:54.583Z,2.80
2022-09-11T09:16:39.398Z,3.58
2022-09-11T09:19:14.794Z,4.18
2022-09-11T09:21:59.309Z,3.85
2022-09-11T09:24:33.225Z,3.80
2022-09-11T09:27:03.597Z,4.03
2022-09-11T09:29:37.839Z,3.80
2022-09-11T09:32:11.848Z,3.83
2022-09-11T09:34:41.881Z,4.45
2022-09-11T09:37:21.743Z,3.38
2022-09-11T09:39:49.769Z,3.70
2022-09-11T09:42:26.244Z,4.38
2022-09-11T09:45:10.989Z,3.97
2022-09-11T09:47:44.558Z,3.53
2022-09-11T09:50:27.661Z,2.53
2022-09-11T09:55:26.729Z,2.72
2022-09-11T09:57:54.086Z,2.63
2022-09-11T10:00:21.239Z,3.53
2022-09-11T10:02:57.284Z,3.20
2022-09-11T10:05:35.100Z,2.78
2022-09-11T10:08:06.809Z,3.13
2022-09-11T10:10:38.173Z,3.00
2022-09-11T10:13:22.424Z,3.00
2022-09-11T10:15:51.350Z,3.15
2022-09-11T10:18:33.972Z,3.00
2022-09-11T10:21:13.820Z,3.08
2022-09-11T10:24:22.463Z,3.47
2022-09-11T10:26:54.204Z,3.75
2022-09-11T10:29:24.427Z,2.97
2022-09-11T10:31:54.879Z,2.90
2022-09-11T10:34:25.280Z,2.92
2022-09-11T10:37:13.788Z,2.70
2022-09-11T10:39:43.891Z,2.85
2022-09-11T10:42:25.984Z,3.10
2022-09-11T10:44:54.730Z,3.30
2022-09-11T10:47:30.932Z,3.17
2022-09-11T10:50:17.748Z,3.38
2022-09-11T10:53:05.929Z,2.75
2022-09-11T10:55:39.051Z,2.85
2022-09-11T10:58:14.237Z,3.08
2022-09-11T11:00:41.099Z,2.47
2022-09-11T11:03:17.348Z,2.60
2022-09-11T11:05:53.153Z,2.58
2022-09-11T11:08:57.401Z,3.10
2022-09-11T11:11:40.308Z,2.75
2022-09-11T11:14:21.244Z,2.00
2022-09-11T11:17:18.698Z,3.22
2022-09-11T11:19:58.757Z,3.05
2022-09-11T11:22:51.576Z,3.22
2022-09-11T11:25:25.616Z,3.30
2022-09-11T11:28:07.726Z,3.92
2022-09-11T11:30:55.178Z,3.45
2022-09-11T11:33:34.238Z,2.72
2022-09-11T11:36:07.769Z,3.50
2022-09-11T11:39:00.502Z,3.33
2022-09-11T11:44:02.594Z,2.83
2022-09-11T11:46:39.513Z,2.58
2022-09-11T11:49:23.067Z,2.67
2022-09-11T11:52:00.317Z,3.42
2022-09-11T11:54:37.593Z,2.65
2022-09-11T11:57:20.646Z,2.70
2022-09-11T11:59:54.670Z,2.53
2022-09-11T12:02:30.740Z,3.13
2022-09-11T12:05:05.061Z,2.47
2022-09-11T12:07:35.362Z,2.90
2022-09-11T12:10:05.037Z,2.40
2022-09-11T12:12:36.538Z,2.60
2022-09-11T12:15:09.834Z,2.38
2022-09-11T12:17:40.477Z,2.70
2022-09-11T12:20:10.765Z,2.58
2022-09-11T12:22:50.443Z,3.22
2022-09-11T12:25:23.250Z,2.47
2022-09-11T12:27:52.826Z,2.92
2022-09-11T12:30:25.013Z,2.30
2022-09-11T12:33:02.365Z,2.72
2022-09-11T12:35:50.896Z,2.40
2022-09-11T12:38:38.089Z,2.78
2022-09-11T12:41:14.114Z,2.53
2022-09-11T12:43:43.858Z,2.65
2022-09-11T12:46:34.696Z,2.15
2022-09-11T12:49:25.457Z,2.97
2022-09-11T12:52:00.381Z,3.85
2022-09-11T12:54:47.646Z,2.17
2022-09-11T12:57:19.325Z,1.92
2022-09-11T12:59:53.435Z,2.47
2022-09-11T13:02:30.005Z,2.83
2022-09-11T13:04:58.110Z,2.35
2022-09-11T13:07:43.080Z,2.08
2022-09-11T13:10:26.560Z,1.95
2022-09-11T13:12:55.880Z,2.03
2022-09-11T13:15:42.868Z,2.67
2022-09-11T13:18:31.021Z,1.80
2022-09-11T13:21:00.760Z,1.80
2022-09-11T13:23:29.342Z,1.88
2022-09-11T13:25:58.174Z,1.50
2022-09-11T13:28:27.761Z,1.75
2022-09-11T13:31:02.883Z,1.70
2022-09-11T13:33:32.090Z,1.60
2022-09-11T13:36:06.878Z,1.65
2022-09-11T13:38:36.596Z,1.50
2022-09-11T13:41:07.411Z,1.50
2022-09-11T13:43:46.980Z,1.63
2022-09-11T13:46:17.143Z,2.05
2022-09-11T13:48:46.007Z,1.48
2022-09-11T13:51:15.098Z,1.42
2022-09-11T13:53:45.359Z,1.80
2022-09-11T13:56:58.317Z,1.88
2022-09-11T13:59:35.319Z,1.65
2022-09-11T14:02:07.161Z,2.00
2022-09-11T14:04:40.707Z,2.10
2022-09-11T14:07:18.074Z,1.77
2022-09-11T14:10:06.372Z,1.50
2022-09-11T14:12:35.360Z,1.60
2022-09-11T14:15:21.012Z,2.08
2022-09-11T14:17:48.068Z,1.65
2022-09-11T14:20:20.179Z,1.42
2022-09-11T14:22:47.726Z,1.75
2022-09-11T14:25:24.266Z,2.45
2022-09-11T14:27:51.651Z,2.25
2022-09-11T14:30:37.209Z,2.10
2022-09-11T14:33:15.706Z,1.50
2022-09-11T14:35:45.791Z,1.20
2022-09-11T14:38:14.632Z,1.98
2022-09-11T14:41:03.064Z,2.35
2022-09-11T14:43:33.459Z,1.40
2022-09-11T14:46:02.129Z,1.50
2022-09-11T14:48:30.931Z,1.73
2022-09-11T14:50:58.732Z,1.50
2022-09-11T14:53:31.481Z,1.25
2022-09-11T14:56:00.133Z,1.38
2022-09-11T14:58:28.785Z,1.02
2022-09-11T15:00:56.555Z,1.00
2022-09-11T15:03:25.322Z,1.10
2022-09-11T15:05:58.337Z,1.95
2022-09-11T15:10:53.691Z,1.25
2022-09-11T15:13:21.447Z,1.13
2022-09-11T15:15:48.448Z,1.15
2022-09-11T15:18:16.871Z,1.60
2022-09-11T15:20:43.797Z,1.40
2022-09-11T15:23:10.704Z,1.40
2022-09-11T15:25:38.321Z,1.15
2022-09-11T15:28:10.030Z,1.30
2022-09-11T15:30:38.275Z,1.17
2022-09-11T15:33:06.249Z,1.08
2022-09-11T15:35:33.309Z,1.55
2022-09-11T15:38:05.557Z,1.20
2022-09-11T15:40:35.194Z,1.10
2022-09-11T15:43:02.131Z,1.02
2022-09-11T15:45:31.978Z,0.70
2022-09-11T15:48:02.913Z,1.23
2022-09-11T15:50:30.270Z,0.50
2022-09-11T15:52:57.740Z,0.70
2022-09-11T15:55:27.354Z,0.90
2022-09-11T15:57:54.277Z,1.00
2022-09-11T16:00:22.029Z,1.00
2022-09-11T16:02:52.696Z,0.75
2022-09-11T16:05:19.861Z,0.93
2022-09-11T16:07:48.202Z,0.95
2022-09-11T16:10:15.708Z,0.70
2022-09-11T16:12:42.603Z,1.45
2022-09-11T16:15:09.903Z,1.00
2022-09-11T16:17:37.526Z,0.70
2022-09-11T16:20:04.835Z,0.52
2022-09-11T16:22:32.349Z,1.17
2022-09-11T16:24:59.492Z,0.77
2022-09-11T16:27:26.426Z,0.90
2022-09-11T16:32:41.219Z,0.85
2022-09-11T16:35:08.487Z,0.90
2022-09-11T16:37:35.446Z,1.00
2022-09-11T16:40:04.373Z,0.88
2022-09-11T16:42:31.958Z,0.57
2022-09-11T16:44:58.859Z,1.00
2022-09-11T16:47:26.285Z,0.85
2022-09-11T16:50:09.151Z,0.90
2022-09-11T16:52:36.706Z,0.85
2022-09-11T16:55:07.018Z,0.98
2022-09-11T16:57:34.561Z,1.77
2022-09-11T17:00:02.040Z,1.40
2022-09-11T17:02:30.481Z,1.10
2022-09-11T17:04:57.388Z,1.23
2022-09-11T17:07:24.861Z,1.67
2022-09-11T17:09:51.972Z,1.67
2022-09-11T17:12:18.849Z,1.65
2022-09-11T17:14:46.041Z,1.83
2022-09-11T17:17:13.357Z,1.50
2022-09-11T17:19:40.289Z,1.42
2022-09-11T17:22:08.663Z,1.90
2022-09-11T17:24:35.919Z,1.60
2022-09-11T17:27:02.859Z,1.27
2022-09-11T17:29:29.972Z,1.08
2022-09-11T17:32:10.850Z,0.70
2022-09-11T17:34:44.149Z,1.00
2022-09-11T17:37:11.086Z,0.93
2022-09-11T17:39:38.179Z,1.67
2022-09-11T17:42:11.019Z,1.63
2022-09-11T17:44:41.407Z,2.35
2022-09-11T17:47:09.257Z,2.50
2022-09-11T17:49:36.398Z,2.50
2022-09-11T17:52:03.757Z,1.60
2022-09-11T17:54:31.030Z,0.90
2022-09-11T17:56:58.605Z,1.42
2022-09-11T17:59:25.548Z,1.30
2022-09-11T18:01:53.545Z,1.30
2022-09-11T18:04:20.658Z,1.10
2022-09-11T18:06:47.657Z,1.33
2022-09-11T18:09:19.786Z,1.38
2022-09-11T18:11:49.478Z,1.17
2022-09-11T18:14:18.731Z,1.67
2022-09-11T18:16:47.852Z,1.30
2022-09-11T18:19:16.459Z,1.13
2022-09-11T18:21:49.259Z,1.00
2022-09-11T18:24:20.432Z,1.23
2022-09-11T18:26:50.136Z,1.27
2022-09-11T18:29:20.122Z,1.65
2022-09-11T18:31:52.630Z,1.25
2022-09-11T18:34:23.630Z,1.55
2022-09-11T18:36:51.017Z,1.45
2022-09-11T18:39:18.934Z,1.83
2022-09-11T18:41:47.771Z,1.50
2022-09-11T18:44:19.837Z,1.35
2022-09-11T18:46:47.819Z,1.65
2022-09-11T18:49:16.027Z,2.00
2022-09-11T18:51:43.684Z,1.27
2022-09-11T18:54:15.534Z,1.70
2022-09-11T18:56:43.171Z,1.50
2022-09-11T18:59:12.163Z,1.50
2022-09-11T19:01:40.120Z,1.67
2022-09-11T19:04:11.794Z,1.40
2022-09-11T19:06:39.843Z,1.38
2022-09-11T19:09:10.423Z,1.35
2022-09-11T19:11:37.711Z,1.40
2022-09-11T19:14:06.754Z,2.28
2022-09-11T19:16:34.537Z,2.20
2022-09-11T19:19:02.125Z,1.55
2022-09-11T19:21:29.919Z,2.53
2022-09-11T19:24:00.318Z,1.45
2022-09-11T19:26:33.705Z,1.75
2022-09-11T19:29:01.092Z,1.85
2022-09-11T19:31:29.773Z,2.33
2022-09-11T19:34:00.804Z,2.65
2022-09-11T19:36:30.488Z,2.05
2022-09-11T19:39:00.870Z,2.28
2022-09-11T19:41:31.220Z,2.45
2022-09-11T19:44:00.407Z,2.83
2022-09-11T19:46:28.694Z,2.72
2022-09-11T19:48:58.030Z,1.85
2022-09-11T19:51:27.556Z,1.60
2022-09-11T19:54:00.227Z,2.38
2022-09-11T19:58:56.709Z,1.88
2022-09-11T20:01:26.027Z,1.65
2022-09-11T20:03:54.507Z,1.73
2022-09-11T20:06:24.403Z,1.70
2022-09-11T20:09:03.149Z,2.08
2022-09-11T20:11:40.293Z,2.20
2022-09-11T20:14:07.305Z,2.20
2022-09-11T20:16:34.361Z,2.00
2022-09-11T20:19:09.356Z,1.85
2022-09-11T20:21:36.324Z,1.60
2022-09-11T20:24:07.967Z,1.90
2022-09-11T20:26:35.595Z,2.40
2022-09-11T20:29:06.977Z,1.58
2022-09-11T20:31:46.499Z,2.70
2022-09-11T20:34:14.807Z,2.90
2022-09-11T20:36:41.864Z,2.20
2022-09-11T20:39:12.874Z,2.47
2022-09-11T20:41:39.956Z,2.17
2022-09-11T20:44:07.066Z,2.15
2022-09-11T20:46:34.192Z,2.10
2022-09-11T20:49:01.145Z,2.25
2022-09-11T20:51:30.975Z,2.85
2022-09-11T20:53:57.884Z,2.20
2022-09-11T20:56:24.810Z,1.88
2022-09-11T20:58:52.431Z,2.20
2022-09-11T21:01:22.502Z,1.75
2022-09-11T21:03:55.061Z,2.38
2022-09-11T21:06:26.443Z,2.33
2022-09-11T21:08:55.716Z,2.80
2022-09-11T21:11:27.713Z,1.77
2022-09-11T21:13:55.144Z,2.35
2022-09-11T21:16:22.146Z,1.88
2022-09-11T21:18:51.222Z,1.77
2022-09-11T21:21:20.146Z,1.38
2022-09-11T21:23:47.891Z,2.28
2022-09-11T21:26:16.966Z,2.10
2022-09-11T21:28:44.617Z,2.83
2022-09-11T21:31:11.711Z,2.55
2022-09-11T21:33:39.274Z,2.10
2022-09-11T21:36:07.310Z,2.33
2022-09-11T21:38:35.750Z,1.67
2022-09-11T21:41:06.253Z,1.98
2022-09-11T21:43:33.185Z,2.42
2022-09-11T21:46:01.623Z,2.22
2022-09-11T21:48:32.389Z,2.33
2022-09-11T21:51:17.191Z,2.25
2022-09-11T21:53:46.037Z,1.70
2022-09-11T21:56:20.999Z,1.88
2022-09-11T21:58:48.679Z,2.60
2022-09-11T22:01:15.740Z,2.58
2022-09-11T22:03:42.862Z,2.08
2022-09-11T22:06:11.317Z,2.10
2022-09-11T22:08:40.997Z,2.03
2022-09-11T22:11:08.322Z,1.73
2022-09-11T22:13:35.658Z,1.95
2022-09-11T22:16:09.478Z,1.60
2022-09-11T22:18:38.592Z,1.85
2022-09-11T22:21:06.287Z,1.90
2022-09-11T22:23:33.612Z,2.15
2022-09-11T22:26:10.366Z,1.88
2022-09-11T22:28:38.325Z,1.80
2022-09-11T22:31:17.974Z,1.67
2022-09-11T22:33:45.350Z,1.77
2022-09-11T22:36:19.224Z,1.67
2022-09-11T22:38:47.406Z,1.80
2022-09-11T22:41:15.630Z,1.70
2022-09-11T22:43:42.555Z,1.85
2022-09-11T22:46:09.533Z,2.40
2022-09-11T22:48:37.019Z,1.80
2022-09-11T22:51:04.872Z,2.22
2022-09-11T22:53:32.457Z,1.67
2022-09-11T22:55:59.878Z,1.92
2022-09-11T22:58:29.355Z,2.08
2022-09-11T23:00:58.006Z,1.73
2022-09-11T23:03:26.085Z,3.00
2022-09-11T23:06:19.030Z,1.52
2022-09-11T23:08:47.097Z,1.77
2022-09-11T23:11:17.157Z,1.90
2022-09-11T23:13:44.582Z,2.00
2022-09-11T23:16:17.874Z,1.85
2022-09-11T23:21:13.173Z,1.77
2022-09-11T23:23:44.866Z,2.40
2022-09-11T23:26:13.886Z,1.77
2022-09-11T23:28:41.767Z,2.10
2022-09-11T23:31:18.698Z,2.13
2022-09-11T23:33:46.540Z,1.92
2022-09-11T23:36:15.169Z,2.00
2022-09-11T23:38:47.273Z,2.10
2022-09-11T23:41:15.460Z,1.65
2022-09-11T23:43:42.453Z,2.53
2022-09-11T23:46:09.679Z,2.78
2022-09-11T23:48:36.855Z,1.65
2022-09-11T23:51:04.607Z,1.65
2022-09-11T23:53:31.530Z,1.85
2022-09-11T23:55:59.034Z,1.70
2022-09-11T23:58:26.109Z,2.47
